Time;durP1;ratioP1;P1;durP2;ratioP2;P2;SDS_P1;SDS_P2;PMS_P1;PMS_P2;Temp;Humidity;BMP_temperature;BMP_pressure;BME280_temperature;BME280_humidity;BME280_pressure;Samples;Min_cycle;Max_cycle;Signal;HPM_P1;HPM_P2
2021/08/10 00:01:45;;;;;;;3.15;2.30;;;;;;;12.77;100.00;101064.41;5014129;28;20067;-81
2021/08/10 00:04:12;;;;;;;2.83;2.20;;;;;;;12.76;100.00;101067.13;5011632;28;20470;-83
2021/08/10 00:06:42;;;;;;;3.05;2.40;;;;;;;12.80;100.00;101060.84;5015100;28;20045;-80
2021/08/10 00:09:10;;;;;;;3.40;2.67;;;;;;;12.82;100.00;101069.63;5015937;28;20075;-80
2021/08/10 00:11:36;;;;;;;3.90;2.72;;;;;;;12.73;100.00;101056.59;5032705;28;20045;-83
2021/08/10 00:14:03;;;;;;;3.13;2.47;;;;;;;12.77;100.00;101066.19;5024119;28;20091;-83
2021/08/10 00:16:30;;;;;;;3.20;2.47;;;;;;;12.70;100.00;101060.19;5026175;28;20049;-81
2021/08/10 00:18:56;;;;;;;3.88;2.60;;;;;;;12.70;100.00;101048.72;5000708;28;20071;-83
2021/08/10 00:21:23;;;;;;;2.85;2.38;;;;;;;12.68;100.00;101067.28;5007908;28;20053;-82
2021/08/10 00:23:50;;;;;;;3.60;2.80;;;;;;;12.63;100.00;101067.41;5031817;28;20095;-80
2021/08/10 00:26:17;;;;;;;2.67;2.42;;;;;;;12.61;100.00;101063.03;5013761;28;20050;-81
2021/08/10 00:28:43;;;;;;;3.58;2.47;;;;;;;12.59;100.00;101056.88;5035491;28;20045;-83
2021/08/10 00:31:10;;;;;;;4.22;2.30;;;;;;;12.56;100.00;101056.97;5012898;28;20033;-80
2021/08/10 00:33:38;;;;;;;4.80;2.50;;;;;;;12.55;100.00;101063.19;5020234;28;20067;-82
2021/08/10 00:36:05;;;;;;;4.55;2.42;;;;;;;12.54;100.00;101058.78;5025184;28;20043;-80
2021/08/10 00:38:31;;;;;;;3.80;2.40;;;;;;;12.50;100.00;101070.34;5028659;28;20071;-82
2021/08/10 00:40:58;;;;;;;3.25;2.40;;;;;;;12.43;100.00;101064.31;5017606;28;20064;-83
2021/08/10 00:43:30;;;;;;;4.15;2.30;;;;;;;12.41;100.00;101058.16;5015762;28;20045;-83
2021/08/10 00:48:49;;;;;;;4.35;2.20;;;;;;;12.36;100.00;101071.53;4987928;28;20042;-80
2021/08/10 00:51:15;;;;;;;3.17;2.20;;;;;;;12.35;100.00;101067.13;4958142;28;20035;-80
2021/08/10 00:53:42;;;;;;;2.88;2.25;;;;;;;12.35;100.00;101072.41;4976624;28;20499;-80
2021/08/10 00:56:09;;;;;;;3.90;2.45;;;;;;;12.32;100.00;101075.13;4994613;28;20042;-80
2021/08/10 00:58:39;;;;;;;2.95;2.30;;;;;;;12.32;100.00;101066.31;4995760;28;20060;-80
2021/08/10 01:01:05;;;;;;;3.08;2.33;;;;;;;12.28;100.00;101068.19;4979582;28;20041;-80
2021/08/10 01:03:32;;;;;;;4.28;2.55;;;;;;;12.26;100.00;101072.59;4997781;28;20064;-80
2021/08/10 01:06:01;;;;;;;4.40;2.55;;;;;;;12.29;100.00;101067.28;4979556;28;20050;-82
2021/08/10 01:08:35;;;;;;;3.10;2.22;;;;;;;12.25;100.00;101070.00;4991865;28;20046;-82
2021/08/10 01:11:28;;;;;;;4.65;3.03;;;;;;;12.25;100.00;101070.00;4977493;28;20054;-82
2021/08/10 01:14:17;;;;;;;3.78;2.40;;;;;;;12.17;100.00;101069.28;4996908;28;20414;-81
2021/08/10 01:17:00;;;;;;;3.47;2.38;;;;;;;12.17;100.00;101074.59;4994213;28;20038;-81
2021/08/10 01:19:48;;;;;;;3.10;2.30;;;;;;;12.17;100.00;101074.59;4988380;28;20060;-82
2021/08/10 01:22:16;;;;;;;5.25;2.53;;;;;;;12.14;100.00;101069.34;4988596;28;20045;-82
2021/08/10 01:25:04;;;;;;;3.40;2.70;;;;;;;12.11;100.00;101068.53;4979918;28;20418;-81
2021/08/10 01:27:43;;;;;;;2.90;2.60;;;;;;;12.14;100.00;101054.34;5009369;28;20046;-82
2021/08/10 01:30:12;;;;;;;4.13;2.75;;;;;;;12.09;100.00;101049.13;4991763;28;20041;-81
2021/08/10 01:32:42;;;;;;;2.72;2.20;;;;;;;12.08;100.00;101057.09;4988588;28;20046;-80
2021/08/10 01:35:10;;;;;;;3.30;2.67;;;;;;;12.11;100.00;101059.72;4974701;28;20133;-81
2021/08/10 01:37:38;;;;;;;6.47;2.67;;;;;;;12.08;100.00;101054.44;4980261;28;20048;-80
2021/08/10 01:40:07;;;;;;;3.03;2.38;;;;;;;12.07;100.00;101044.78;4991297;28;20480;-81
2021/08/10 01:42:36;;;;;;;3.13;2.28;;;;;;;12.09;100.00;101043.81;4995316;28;20478;-81
2021/08/10 01:45:04;;;;;;;4.28;2.50;;;;;;;12.08;100.00;101047.38;4986963;28;20046;-81
2021/08/10 01:47:34;;;;;;;2.53;2.33;;;;;;;12.14;100.00;101046.38;4978786;28;20045;-81
2021/08/10 01:50:03;;;;;;;3.95;2.60;;;;;;;12.08;100.00;101051.81;4987204;28;20042;-81
2021/08/10 01:52:29;;;;;;;3.60;2.45;;;;;;;12.01;100.00;101050.19;4983125;28;20046;-81
2021/08/10 01:54:57;;;;;;;3.75;2.08;;;;;;;11.99;100.00;101044.91;4993901;28;20042;-81
2021/08/10 01:57:24;;;;;;;3.17;2.55;;;;;;;11.99;100.00;101050.22;4986057;28;20499;-81
2021/08/10 01:59:54;;;;;;;3.33;2.42;;;;;;;11.96;100.00;101046.78;4978250;28;20050;-81
2021/08/10 02:02:21;;;;;;;3.60;2.20;;;;;;;11.99;100.00;101044.91;4958078;28;20054;-80
2021/08/10 02:04:49;;;;;;;4.15;2.60;;;;;;;11.99;100.00;101052.00;4961753;28;20525;-80
2021/08/10 02:07:16;;;;;;;5.18;2.90;;;;;;;11.98;100.00;101050.25;4988277;28;20450;-80
2021/08/10 02:09:43;;;;;;;5.40;2.63;;;;;;;11.98;100.00;101050.25;4976315;28;20052;-80
2021/08/10 02:12:10;;;;;;;2.92;2.60;;;;;;;11.95;100.00;101052.97;4962888;28;20041;-80
2021/08/10 02:14:37;;;;;;;3.55;2.90;;;;;;;11.91;100.00;101051.28;4960668;28;20056;-80
2021/08/10 02:17:06;;;;;;;3.80;2.55;;;;;;;11.87;100.00;101057.53;4974600;28;20106;-80
2021/08/10 02:19:34;;;;;;;4.30;2.80;;;;;;;11.87;100.00;101057.53;4989686;28;20046;-80
2021/08/10 02:22:06;;;;;;;3.60;2.47;;;;;;;11.82;100.00;101057.63;4986112;28;20038;-80
2021/08/10 02:24:57;;;;;;;3.55;2.55;;;;;;;11.75;100.00;101059.47;4992962;28;20050;-81
2021/08/10 02:27:40;;;;;;;3.92;2.53;;;;;;;11.75;100.00;101061.25;4975820;28;20100;-80
2021/08/10 02:30:12;;;;;;;3.03;2.63;;;;;;;11.75;100.00;101066.53;5005781;28;20046;-80
2021/08/10 02:32:39;;;;;;;3.28;2.80;;;;;;;11.69;100.00;101067.56;4994974;28;20045;-81
2021/08/10 02:35:07;;;;;;;3.03;2.45;;;;;;;11.73;100.00;101066.56;4989280;28;20070;-81
2021/08/10 02:37:35;;;;;;;3.55;2.30;;;;;;;11.72;100.00;101075.41;4963824;28;20049;-81
2021/08/10 02:40:06;;;;;;;3.80;2.60;;;;;;;11.70;100.00;101074.59;4977096;28;20045;-82
2021/08/10 02:42:34;;;;;;;4.90;2.60;;;;;;;11.71;100.00;101067.50;5009869;28;20111;-80
2021/08/10 02:45:01;;;;;;;3.30;2.22;;;;;;;11.70;100.00;101060.47;4976835;28;20056;-80
2021/08/10 02:47:28;;;;;;;3.75;2.33;;;;;;;11.72;100.00;101061.31;4972524;28;20111;-80
2021/08/10 02:49:55;;;;;;;3.40;2.65;;;;;;;11.69;100.00;101058.75;4972952;28;20070;-80
2021/08/10 02:52:21;;;;;;;4.10;2.40;;;;;;;11.71;100.00;101060.44;4984828;28;20045;-80
2021/08/10 02:54:48;;;;;;;4.85;2.90;;;;;;;11.66;100.00;101057.00;4986728;28;20038;-80
2021/08/10 02:57:26;;;;;;;3.30;2.70;;;;;;;11.65;100.00;101064.97;4990327;28;20165;-80
2021/08/10 02:59:54;;;;;;;4.05;2.63;;;;;;;11.63;100.00;101058.84;4995640;28;20396;-81
2021/08/10 03:02:22;;;;;;;4.10;3.15;;;;;;;11.58;100.00;101061.56;4972709;28;20046;-81
2021/08/10 03:05:02;;;;;;;3.72;2.97;;;;;;;11.60;100.00;101061.53;4981150;28;20046;-80
2021/08/10 03:07:29;;;;;;;3.42;2.75;;;;;;;11.58;100.00;101053.63;4990158;28;20042;-80
2021/08/10 03:10:00;;;;;;;4.65;2.90;;;;;;;11.61;100.00;101053.59;4988634;28;20054;-80
2021/08/10 03:12:29;;;;;;;3.75;2.92;;;;;;;11.59;100.00;101050.06;4979444;28;20512;-80
2021/08/10 03:14:57;;;;;;;5.28;3.42;;;;;;;11.57;100.00;101049.22;4992962;28;20650;-80
2021/08/10 03:17:28;;;;;;;4.13;2.72;;;;;;;11.53;100.00;101055.50;4972993;28;20502;-81
2021/08/10 03:19:56;;;;;;;3.45;2.63;;;;;;;11.54;100.00;101060.75;4988471;28;20689;-80
2021/08/10 03:22:23;;;;;;;3.33;2.97;;;;;;;11.52;100.00;101051.97;4964690;28;20081;-80
2021/08/10 03:24:52;;;;;;;4.72;2.58;;;;;;;11.50;100.00;101047.59;4979740;28;20040;-81
2021/08/10 03:27:19;;;;;;;3.33;2.90;;;;;;;11.55;100.00;101048.41;4978335;28;20038;-80
2021/08/10 03:29:46;;;;;;;4.07;3.03;;;;;;;11.47;100.00;101050.31;5001152;28;20414;-80
2021/08/10 03:32:14;;;;;;;3.42;2.70;;;;;;;11.49;100.00;101053.78;4950340;28;20038;-80
2021/08/10 03:34:41;;;;;;;4.30;3.00;;;;;;;11.46;100.00;101053.84;4976251;28;20100;-80
2021/08/10 03:37:08;;;;;;;3.55;2.75;;;;;;;11.47;100.00;101058.25;4973540;28;20750;-80
2021/08/10 03:39:38;;;;;;;3.80;3.28;;;;;;;11.46;100.00;101057.38;4987507;28;20058;-80
2021/08/10 03:42:05;;;;;;;3.78;2.65;;;;;;;11.44;100.00;101064.47;4987340;28;20100;-80
2021/08/10 03:44:32;;;;;;;3.83;3.00;;;;;;;11.43;100.00;101056.53;4975399;28;20041;-81
2021/08/10 03:46:59;;;;;;;3.53;2.97;;;;;;;11.47;100.00;101051.19;4974043;28;20096;-82
2021/08/10 03:49:26;;;;;;;3.72;2.95;;;;;;;11.44;100.00;101051.25;4991577;28;20049;-82
2021/08/10 03:51:53;;;;;;;4.45;3.20;;;;;;;11.48;100.00;101052.03;4985060;28;20100;-82
2021/08/10 03:54:19;;;;;;;4.80;3.00;;;;;;;11.49;100.00;101048.50;4991103;28;20465;-82
2021/08/10 03:56:49;;;;;;;4.07;3.10;;;;;;;11.50;100.00;101045.81;4991156;28;20689;-81
2021/08/10 03:59:18;;;;;;;2.95;2.65;;;;;;;11.52;100.00;101044.03;4974939;28;20120;-82
2021/08/10 04:01:46;;;;;;;4.13;3.05;;;;;;;11.53;100.00;101053.72;4980444;28;20069;-83
2021/08/10 04:04:13;;;;;;;3.97;2.63;;;;;;;11.53;100.00;101052.84;4976720;28;20052;-82
2021/08/10 04:06:40;;;;;;;3.25;2.45;;;;;;;11.56;100.00;101050.13;4974526;28;20092;-81
2021/08/10 04:09:07;;;;;;;7.18;3.13;;;;;;;11.64;100.00;101055.28;4973491;28;20431;-82
2021/08/10 04:11:34;;;;;;;4.03;3.15;;;;;;;11.70;100.00;101049.88;4984449;28;20577;-82
2021/08/10 04:14:01;;;;;;;4.15;2.70;;;;;;;11.75;100.00;101046.22;4968370;28;20104;-82
2021/08/10 04:16:29;;;;;;;6.05;3.03;;;;;;;11.82;100.00;101053.19;4986175;28;20042;-81
2021/08/10 04:18:56;;;;;;;3.85;2.92;;;;;;;11.87;100.00;101042.53;4975250;28;20097;-82
2021/08/10 04:21:25;;;;;;;3.33;2.83;;;;;;;11.95;100.00;101050.31;4985770;28;20041;-82
2021/08/10 04:23:52;;;;;;;3.80;2.83;;;;;;;11.97;100.00;101043.22;4978491;28;20050;-82
2021/08/10 04:26:19;;;;;;;3.05;2.72;;;;;;;11.98;100.00;101043.19;4977778;28;20041;-82
2021/08/10 04:28:45;;;;;;;5.57;2.75;;;;;;;12.02;100.00;101041.31;4996004;28;20038;-82
2021/08/10 04:31:15;;;;;;;4.45;3.25;;;;;;;12.11;100.00;101051.75;4964177;28;20094;-82
2021/08/10 04:33:41;;;;;;;3.65;3.00;;;;;;;12.18;100.00;101049.84;5017004;28;20041;-82
2021/08/10 04:36:08;;;;;;;4.65;2.80;;;;;;;12.22;100.00;101044.44;4993075;28;20042;-82
2021/08/10 04:38:35;;;;;;;4.05;2.60;;;;;;;12.27;100.00;101034.63;4998419;28;20042;-81
2021/08/10 04:41:01;;;;;;;3.53;3.22;;;;;;;12.34;100.00;101040.66;4978432;28;20706;-82
2021/08/10 04:43:28;;;;;;;4.22;3.20;;;;;;;12.38;100.00;101037.06;4970962;28;20050;-82
2021/08/10 04:45:54;;;;;;;3.80;2.65;;;;;;;12.45;100.00;101035.16;4975337;28;20545;-82
2021/08/10 04:48:21;;;;;;;3.88;2.65;;;;;;;12.47;100.00;101043.94;5003949;28;20046;-82
2021/08/10 04:50:48;;;;;;;3.38;3.08;;;;;;;12.53;100.00;101049.09;4990967;28;20053;-81
2021/08/10 04:53:14;;;;;;;3.63;2.67;;;;;;;12.57;100.00;101050.75;4975984;28;20050;-81
2021/08/10 04:55:41;;;;;;;3.83;2.72;;;;;;;12.56;100.00;101044.59;4958847;28;20049;-82
2021/08/10 04:58:08;;;;;;;4.03;3.42;;;;;;;12.62;100.00;101047.13;4973390;28;20047;-81
2021/08/10 05:00:34;;;;;;;4.57;2.95;;;;;;;12.62;100.00;101043.59;4957865;28;20049;-82
2021/08/10 05:03:01;;;;;;;4.40;3.50;;;;;;;12.59;100.00;101046.28;4986419;28;20085;-82
2021/08/10 05:05:28;;;;;;;3.60;2.92;;;;;;;12.58;100.00;101050.72;4974257;28;20038;-82
2021/08/10 05:07:55;;;;;;;3.60;2.88;;;;;;;12.60;100.00;101038.28;4975068;28;20042;-82
2021/08/10 05:10:22;;;;;;;4.90;2.92;;;;;;;12.62;100.00;101030.34;5007005;28;20541;-82
2021/08/10 05:12:48;;;;;;;4.05;2.95;;;;;;;12.69;100.00;101031.91;4991534;28;20038;-83
2021/08/10 05:15:15;;;;;;;3.90;2.75;;;;;;;12.73;100.00;101033.59;5010216;28;20566;-83
2021/08/10 05:17:42;;;;;;;5.53;2.95;;;;;;;12.66;100.00;101027.56;4979707;28;20136;-84
2021/08/10 05:20:10;;;;;;;3.92;3.13;;;;;;;12.73;100.00;101022.13;4993816;28;21847;-82
2021/08/10 05:22:37;;;;;;;3.83;2.75;;;;;;;12.74;100.00;101026.50;4961777;28;20037;-83
2021/08/10 05:25:07;;;;;;;3.83;3.42;;;;;;;12.76;100.00;101022.03;4987241;28;20096;-83
2021/08/10 05:27:33;;;;;;;4.53;2.70;;;;;;;12.81;100.00;101021.03;4996696;28;20061;-83
2021/08/10 05:30:00;;;;;;;4.18;3.13;;;;;;;12.89;100.00;101024.38;4978659;28;20112;-82
2021/08/10 05:32:27;;;;;;;4.03;2.67;;;;;;;12.96;100.00;101025.97;5008149;28;20465;-83
2021/08/10 05:34:53;;;;;;;3.03;2.65;;;;;;;13.08;100.00;101023.91;4993022;28;20298;-83
2021/08/10 05:37:20;;;;;;;3.83;3.03;;;;;;;13.17;100.00;101019.25;4994979;28;20046;-83
2021/08/10 05:39:46;;;;;;;4.47;3.20;;;;;;;13.12;100.00;101015.88;4994158;28;20186;-82
2021/08/10 05:42:13;;;;;;;4.00;2.97;;;;;;;13.21;100.00;101020.09;4994326;28;20104;-82
2021/08/10 05:44:40;;;;;;;5.40;3.05;;;;;;;13.34;100.00;101021.50;4978333;28;20045;-81
2021/08/10 05:47:09;;;;;;;3.25;2.80;;;;;;;13.45;100.00;101026.50;4994400;28;20029;-83
2021/08/10 05:49:35;;;;;;;3.25;2.65;;;;;;;13.58;100.00;101024.44;4983218;28;20054;-82
2021/08/10 05:52:03;;;;;;;5.43;3.05;;;;;;;13.67;100.00;101017.06;5001546;28;20057;-81
2021/08/10 05:54:30;;;;;;;4.32;3.20;;;;;;;13.83;100.00;101017.53;4971968;28;20491;-83
2021/08/10 05:56:57;;;;;;;3.50;3.20;;;;;;;13.98;100.00;101022.41;4994055;28;20038;-82
2021/08/10 05:59:23;;;;;;;4.45;2.92;;;;;;;14.23;100.00;101019.03;4995074;28;20058;-82
2021/08/10 06:01:50;;;;;;;3.47;2.80;;;;;;;14.42;100.00;101022.88;4961551;28;20618;-82
2021/08/10 06:04:17;;;;;;;4.10;2.95;;;;;;;14.68;100.00;101015.91;4977112;28;20045;-82
2021/08/10 06:06:43;;;;;;;3.67;2.83;;;;;;;14.81;100.00;101018.13;4978822;28;20166;-83
2021/08/10 06:09:10;;;;;;;3.58;3.15;;;;;;;14.95;100.00;101014.13;4986037;28;20042;-82
2021/08/10 06:11:37;;;;;;;3.72;2.90;;;;;;;15.17;100.00;101005.41;4981804;28;20492;-82
2021/08/10 06:14:03;;;;;;;4.40;3.30;;;;;;;15.23;100.00;101016.78;4985357;28;20152;-83
2021/08/10 06:16:30;;;;;;;4.15;3.00;;;;;;;15.34;100.00;101017.25;4980596;28;20097;-86
2021/08/10 06:18:57;;;;;;;5.00;3.67;;;;;;;15.55;100.00;101021.81;4996139;28;20057;-84
2021/08/10 06:21:23;;;;;;;5.50;4.03;;;;;;;15.66;100.00;101014.38;4979255;28;20058;-82
2021/08/10 06:23:50;;;;;;;3.97;3.38;;;;;;;15.87;100.00;101020.69;4996229;28;20041;-84
2021/08/10 06:26:17;;;;;;;7.32;4.13;;;;;;;16.48;100.00;101017.50;4976136;28;20092;-83
2021/08/10 06:28:44;;;;;;;4.35;3.42;;;;;;;17.47;94.88;101010.75;5008883;28;20049;-83
2021/08/10 06:31:10;;;;;;;4.22;3.00;;;;;;;18.77;86.31;101011.06;4977126;28;20045;-82
2021/08/10 06:33:37;;;;;;;5.22;2.85;;;;;;;20.30;77.29;101015.63;4979408;28;20108;-79
2021/08/10 06:36:05;;;;;;;3.88;2.88;;;;;;;21.26;71.82;101004.75;5000954;28;20045;-83
2021/08/10 06:38:32;;;;;;;4.40;2.90;;;;;;;22.12;69.70;101005.81;4994967;28;20088;-82
2021/08/10 06:40:59;;;;;;;5.10;2.30;;;;;;;22.73;64.71;101013.50;4974972;28;20038;-82
2021/08/10 06:43:26;;;;;;;5.80;2.65;;;;;;;22.83;63.57;101019.13;4975138;28;20454;-83
2021/08/10 06:45:53;;;;;;;3.00;2.60;;;;;;;22.70;64.36;101013.72;4970574;28;20042;-84
2021/08/10 06:48:19;;;;;;;3.78;2.50;;;;;;;22.46;64.60;101009.91;5067734;23;20029;-80
2021/08/10 06:50:46;;;;;;;4.05;2.88;;;;;;;21.93;65.32;101014.97;4991480;28;20124;-79
2021/08/10 06:53:14;;;;;;;3.85;2.65;;;;;;;21.30;68.43;101009.91;4991638;28;20057;-79
2021/08/10 06:55:41;;;;;;;3.67;2.50;;;;;;;20.77;70.56;101008.50;4975371;28;20049;-80
2021/08/10 06:58:08;;;;;;;4.28;2.80;;;;;;;20.49;74.96;101011.88;4975880;28;20044;-79
2021/08/10 07:00:36;;;;;;;3.03;2.65;;;;;;;20.37;76.52;101019.72;4987694;28;20042;-78
2021/08/10 07:03:03;;;;;;;3.83;2.42;;;;;;;20.31;76.09;101020.03;5009900;28;20768;-78
2021/08/10 07:05:30;;;;;;;4.78;2.60;;;;;;;20.18;77.90;101012.69;4992460;28;20095;-79
2021/08/10 07:07:57;;;;;;;4.80;2.60;;;;;;;20.10;74.35;101009.56;4976473;28;20048;-80
2021/08/10 07:10:23;;;;;;;3.85;3.35;;;;;;;19.94;72.58;101001.47;4975224;28;20069;-80
2021/08/10 07:12:52;;;;;;;2.95;2.33;;;;;;;19.81;75.33;101011.09;4976352;28;20048;-78
2021/08/10 07:15:19;;;;;;;4.70;3.53;;;;;;;19.80;76.28;101012.06;4975450;28;20053;-79
2021/08/10 07:17:46;;;;;;;3.72;2.50;;;;;;;19.79;74.36;101012.16;4980671;28;20046;-78
2021/08/10 07:20:13;;;;;;;4.40;2.45;;;;;;;19.88;74.90;101011.66;4993837;28;20070;-78
2021/08/10 07:22:39;;;;;;;4.63;2.75;;;;;;;19.92;73.98;101005.16;4996676;28;20065;-78
2021/08/10 07:25:07;;;;;;;3.80;2.75;;;;;;;20.05;75.81;101014.28;4986860;28;20045;-80
2021/08/10 07:27:33;;;;;;;3.40;2.65;;;;;;;20.19;71.53;101019.78;4969680;28;20042;-79
2021/08/10 07:30:01;;;;;;;2.38;2.17;;;;;;;20.26;72.73;101017.59;4962619;28;20052;-81
2021/08/10 07:32:28;;;;;;;5.22;2.88;;;;;;;20.31;68.38;101020.03;5001492;28;20080;-78
2021/08/10 07:34:56;;;;;;;3.50;2.45;;;;;;;20.29;71.24;101012.09;4984718;28;20033;-79
2021/08/10 07:37:23;;;;;;;4.13;2.20;;;;;;;20.21;69.89;101003.59;5020418;28;20041;-80
2021/08/10 07:39:50;;;;;;;3.75;2.50;;;;;;;20.17;69.01;101007.38;4986305;28;20037;-78
2021/08/10 07:42:16;;;;;;;4.20;2.80;;;;;;;20.20;69.41;101009.91;5000423;28;20088;-80
2021/08/10 07:44:43;;;;;;;2.75;2.30;;;;;;;20.03;68.16;101016.19;4996127;28;20042;-79
2021/08/10 07:47:10;;;;;;;3.67;2.60;;;;;;;20.03;71.07;101016.19;4991797;28;20042;-79
2021/08/10 07:49:37;;;;;;;3.95;2.47;;;;;;;20.10;69.48;101012.25;4992621;28;20058;-78
2021/08/10 07:52:07;;;;;;;4.43;2.60;;;;;;;20.06;71.59;101021.38;4980284;28;20057;-79
2021/08/10 07:54:33;;;;;;;3.47;2.13;;;;;;;20.07;71.83;101003.47;4961576;28;20056;-78
2021/08/10 07:57:00;;;;;;;4.22;2.70;;;;;;;19.94;70.21;100998.78;4983349;28;20049;-78
2021/08/10 07:59:27;;;;;;;4.45;3.17;;;;;;;20.36;72.93;100996.53;4992854;28;20141;-81
2021/08/10 08:01:55;;;;;;;3.83;2.75;;;;;;;20.48;68.04;100991.34;4989504;28;20038;-78
2021/08/10 08:04:22;;;;;;;3.58;2.83;;;;;;;20.89;69.96;100995.31;4976646;28;20126;-79
2021/08/10 08:06:49;;;;;;;4.63;2.60;;;;;;;20.98;67.74;100982.19;5011012;28;20037;-78
2021/08/10 08:09:16;;;;;;;4.28;2.47;;;;;;;21.11;66.65;100979.69;4976162;28;20696;-78
2021/08/10 08:11:43;;;;;;;4.22;3.00;;;;;;;21.20;64.55;100986.31;5014042;28;20046;-79
2021/08/10 08:14:09;;;;;;;3.38;2.10;;;;;;;21.08;63.88;100993.28;4980402;28;20113;-81
2021/08/10 08:16:36;;;;;;;4.05;2.50;;;;;;;21.08;65.39;100990.59;4986593;28;20144;-81
2021/08/10 08:19:03;;;;;;;2.95;1.98;;;;;;;21.12;66.73;100978.72;4987110;28;20046;-78
2021/08/10 08:21:29;;;;;;;2.88;2.40;;;;;;;21.07;65.40;100994.22;4977130;28;20117;-79
2021/08/10 08:23:56;;;;;;;4.55;2.50;;;;;;;20.91;65.81;100986.19;4985554;28;20061;-81
2021/08/10 08:26:23;;;;;;;3.92;2.50;;;;;;;20.78;67.31;100991.44;4973070;28;20049;-78
2021/08/10 08:28:49;;;;;;;3.30;2.67;;;;;;;20.70;65.07;100991.00;4950780;28;20070;-78
2021/08/10 08:31:16;;;;;;;3.47;2.17;;;;;;;20.62;67.32;100990.56;4983550;28;20136;-81
2021/08/10 08:33:43;;;;;;;2.80;2.22;;;;;;;20.63;68.42;100989.63;4995887;28;20047;-80
2021/08/10 08:36:09;;;;;;;5.10;2.47;;;;;;;20.70;69.78;100990.13;4985589;28;20461;-80
2021/08/10 08:38:36;;;;;;;5.47;2.72;;;;;;;20.74;69.38;100984.50;4984156;28;20097;-79
2021/08/10 08:41:04;;;;;;;3.60;2.80;;;;;;;20.81;68.70;100985.00;5000085;28;20125;-79
2021/08/10 08:43:31;;;;;;;3.92;2.45;;;;;;;20.83;68.34;100991.16;5002100;28;20033;-80
2021/08/10 08:45:58;;;;;;;6.07;2.70;;;;;;;20.88;67.96;100975.66;4985284;28;20542;-80
2021/08/10 08:48:26;;;;;;;4.88;2.53;;;;;;;20.89;66.01;100976.50;4993806;28;20080;-79
2021/08/10 08:50:53;;;;;;;2.47;2.15;;;;;;;20.79;67.71;100976.19;5005770;28;20045;-79
2021/08/10 08:53:20;;;;;;;5.38;2.78;;;;;;;20.82;69.81;100970.63;5004562;28;20062;-79
2021/08/10 08:55:47;;;;;;;4.90;2.60;;;;;;;20.83;69.79;100964.28;4983245;28;20042;-79
2021/08/10 08:58:15;;;;;;;4.43;2.75;;;;;;;20.83;68.76;100958.06;4984016;28;20085;-78
2021/08/10 09:00:42;;;;;;;4.32;2.50;;;;;;;20.79;69.75;100954.69;4987405;28;20042;-79
2021/08/10 09:03:11;;;;;;;3.88;2.47;;;;;;;20.65;69.49;100954.63;4974624;28;20117;-78
2021/08/10 09:05:40;;;;;;;3.72;2.60;;;;;;;20.65;69.84;100951.94;4975491;28;20723;-78
2021/08/10 09:08:33;;;;;;;3.42;2.53;;;;;;;20.58;69.57;100956.78;5000779;28;20041;-79
2021/08/10 09:11:03;;;;;;;3.53;2.53;;;;;;;20.51;70.98;100960.78;5009291;28;20041;-78
2021/08/10 09:13:30;;;;;;;2.65;2.08;;;;;;;20.46;72.59;100955.69;5003749;28;20510;-79
2021/08/10 09:16:03;;;;;;;7.00;2.65;;;;;;;20.43;73.60;100952.25;5000140;28;20054;-78
2021/08/10 09:18:30;;;;;;;3.73;2.50;;;;;;;20.39;73.50;100948.91;4987214;28;20137;-80
2021/08/10 09:21:08;;;;;;;2.88;2.40;;;;;;;20.45;73.40;100942.34;4985878;28;20037;-78
2021/08/10 09:23:55;;;;;;;4.43;2.38;;;;;;;20.49;73.91;100943.91;4991671;28;20073;-79
2021/08/10 09:26:37;;;;;;;2.90;2.40;;;;;;;20.54;73.89;100947.19;4982015;28;20414;-78
2021/08/10 09:29:04;;;;;;;4.18;2.83;;;;;;;20.62;72.27;100953.00;4997193;28;20037;-78
2021/08/10 09:31:31;;;;;;;4.30;2.40;;;;;;;20.71;69.95;100940.84;4981096;28;20046;-78
2021/08/10 09:34:00;;;;;;;4.13;2.58;;;;;;;20.82;71.08;100951.81;4994621;28;20054;-80
2021/08/10 09:36:27;;;;;;;4.00;2.30;;;;;;;20.71;70.78;100955.16;4975771;28;20046;-78
2021/08/10 09:38:56;;;;;;;3.42;2.53;;;;;;;20.69;69.43;100950.81;4998800;28;20518;-78
2021/08/10 09:41:25;;;;;;;3.15;2.50;;;;;;;20.67;70.84;100950.88;4994974;28;20038;-78
2021/08/10 09:44:17;;;;;;;4.00;2.67;;;;;;;20.68;70.98;100941.91;5010750;28;20041;-77
2021/08/10 09:46:48;;;;;;;2.83;2.53;;;;;;;20.67;70.13;100940.16;4998787;28;20050;-78
2021/08/10 09:49:17;;;;;;;5.22;2.65;;;;;;;20.64;71.19;100942.16;4992111;28;20049;-78
2021/08/10 09:51:46;;;;;;;2.88;2.42;;;;;;;20.50;70.64;100940.25;5003135;28;20042;-78
2021/08/10 09:54:16;;;;;;;2.67;2.20;;;;;;;20.62;73.21;100923.47;4989511;28;20050;-78
2021/08/10 09:56:49;;;;;;;5.28;2.58;;;;;;;20.51;71.09;100933.94;4965328;28;20053;-78
2021/08/10 09:59:20;;;;;;;4.38;2.70;;;;;;;20.62;73.39;100927.97;4987066;28;20038;-79
2021/08/10 10:01:53;;;;;;;3.30;3.00;;;;;;;20.99;73.95;100929.34;4966389;28;20045;-79
2021/08/10 10:04:26;;;;;;;5.25;3.03;;;;;;;21.31;69.49;100925.63;4983993;28;20093;-78
2021/08/10 10:06:57;;;;;;;3.30;2.67;;;;;;;21.41;69.41;100917.00;4992917;28;20066;-79
2021/08/10 10:09:26;;;;;;;5.25;2.60;;;;;;;21.48;66.36;100924.59;5012849;28;20602;-79
2021/08/10 10:11:54;;;;;;;3.35;2.72;;;;;;;21.50;66.95;100928.03;4995373;28;20037;-79
2021/08/10 10:14:22;;;;;;;4.35;3.05;;;;;;;21.45;67.50;100924.78;4993844;28;20058;-79
2021/08/10 10:16:50;;;;;;;3.83;2.28;;;;;;;21.44;68.48;100931.13;4982087;28;20699;-78
2021/08/10 10:19:18;;;;;;;3.97;2.60;;;;;;;21.55;67.79;100917.00;4976176;28;20052;-79
2021/08/10 10:21:57;;;;;;;4.28;2.25;;;;;;;21.69;67.52;100922.38;4978857;28;20037;-79
2021/08/10 10:24:25;;;;;;;2.92;2.47;;;;;;;22.14;65.39;100912.41;4975346;28;20093;-78
2021/08/10 10:27:06;;;;;;;3.53;2.50;;;;;;;22.25;63.94;100920.63;4996343;28;20053;-78
2021/08/10 10:29:33;;;;;;;4.72;2.75;;;;;;;22.31;62.72;100914.00;4978427;28;20046;-80
2021/08/10 10:32:01;;;;;;;3.55;2.47;;;;;;;22.28;64.29;100917.75;4978945;28;20128;-78
2021/08/10 10:34:28;;;;;;;4.30;2.58;;;;;;;22.63;63.00;100910.03;4978466;28;20046;-79
2021/08/10 10:36:57;;;;;;;3.45;2.40;;;;;;;22.89;62.28;100919.09;4979791;28;20038;-78
2021/08/10 10:39:29;;;;;;;5.82;2.65;;;;;;;22.94;60.69;100910.69;4994875;28;20042;-78
2021/08/10 10:41:58;;;;;;;7.65;2.72;;;;;;;23.05;59.15;100920.75;4996507;28;20049;-80
2021/08/10 10:44:34;;;;;;;4.25;2.42;;;;;;;22.98;58.80;100913.06;4993762;28;20104;-78
2021/08/10 10:47:21;;;;;;;2.90;2.10;;;;;;;22.93;60.46;100912.50;4978518;28;20041;-78
2021/08/10 10:50:08;;;;;;;2.95;2.28;;;;;;;23.03;59.41;100907.34;4993533;28;20065;-80
2021/08/10 10:52:35;;;;;;;3.20;2.65;;;;;;;23.09;56.48;100903.38;4993572;28;20034;-79
2021/08/10 10:55:04;;;;;;;4.90;2.55;;;;;;;23.17;58.12;100904.56;4994423;28;20037;-79
2021/08/10 10:57:31;;;;;;;3.65;2.15;;;;;;;23.42;56.17;100903.72;4991852;28;20857;-79
2021/08/10 11:00:04;;;;;;;3.85;2.47;;;;;;;23.75;54.71;100908.59;4987827;28;20122;-80
2021/08/10 11:02:33;;;;;;;4.18;2.20;;;;;;;23.76;54.43;100902.22;4976447;28;20050;-79
2021/08/10 11:05:28;;;;;;;2.88;1.95;;;;;;;23.70;54.26;100905.38;4977509;28;20538;-79
2021/08/10 11:07:55;;;;;;;3.25;2.55;;;;;;;23.18;54.31;100898.22;4983500;28;20558;-79
2021/08/10 11:10:42;;;;;;;4.32;2.00;;;;;;;23.26;55.50;100895.00;4973108;28;20087;-80
2021/08/10 11:13:25;;;;;;;3.55;2.22;;;;;;;23.51;55.55;100892.28;4969152;28;20038;-84
2021/08/10 11:16:56;;;;;;;5.43;2.35;;;;;;;23.52;52.94;100882.38;4990306;28;20054;-80
2021/08/10 11:19:32;;;;;;;3.88;2.30;;;;;;;23.55;54.63;100890.25;5005618;28;20056;-80
2021/08/10 11:22:14;;;;;;;4.07;2.08;;;;;;;23.51;57.13;100888.72;4995099;28;20549;-82
2021/08/10 11:24:43;;;;;;;5.05;2.17;;;;;;;23.51;53.42;100884.19;4995687;28;20037;-81
2021/08/10 11:27:43;;;;;;;2.85;2.17;;;;;;;23.62;55.61;100890.69;4995428;28;20049;-82
2021/08/10 11:30:30;;;;;;;2.30;2.10;;;;;;;23.58;54.88;100890.91;4935893;28;20058;-81
2021/08/10 11:32:57;;;;;;;4.28;2.15;;;;;;;23.48;53.42;100886.28;4958567;28;20080;-82
2021/08/10 11:35:35;;;;;;;6.35;2.72;;;;;;;23.57;54.92;100883.78;4978748;28;20099;-81